Tiempo atmosférico en la estación meteorológica de Vejer De La Frontera, Cádiz (160 m.)



Fecha
DESCASC
Temp. máxima en grados centígrados (hora)
DESCASC
Temp. mínima en grados centígrados (hora)
DESCASC
Temp. media en grados centígrados
DESCASC
Racha de viento máxima en m/sg (hora)
DESCASC
Velocidad máxima media en intervalos de 10 minutos(hora)
DESCASC
Precipitaciones diarias en mm
DESCASC
Precipitaciones de 00:00 a 06:00 en mm
DESCASC
Precipitaciones de 06:00 a 12:00 en mm
DESCASC
Precipitaciones de 12:00 a 18:00 en mm
DESCASC
Precipitaciones de 18:00 a 24:00 en mm
DESCASC
27-08-2020 34.6 (13:40) 24 (00:00) 29.3 8.61 (16:30) 5.56 (16:50) 0 0 0 0 0
13-09-2020 30 (16:00) 23.6 (00:00) 26.8 17.22 (14:00) 8.06 (14:00) 0 0 0 0 0
25-08-2020 34.8 (16:30) 23 (00:00) 28.9 11.67 (00:40) 4.44 (03:20) 0 0 0 0 0
24-08-2020 33.1 (16:30) 22.7 (00:00) 27.9 11.11 (17:40) 5.28 (18:10) 0 0 0 0 0
14-09-2020 30.7 (15:20) 22.6 (00:00) 26.7 13.33 (03:40) 6.11 (03:40) 0 0 0 0 0
26-08-2020 35.9 (15:00) 22.2 (00:00) 29.1 7.22 (16:40) 3.61 (16:40) 0 0 0 0 0
12-09-2020 30.8 (15:00) 22.2 (00:00) 26.5 18.33 (14:10) 7.22 (15:10) 0 0 0 0 0
17-09-2020 29.2 (15:20) 22 (00:00) 25.6 13.33 (23:59) 6.39 (23:59) 0 0 0 0 0
08-09-2020 29.6 (14:00) 22 (00:00) 25.8 15.56 (14:40) 6.94 (16:10) 0 0 0 0 0
04-09-2020 29.6 (16:10) 21.8 (00:00) 25.7 17.22 (01:50) 8.06 (10:50) 0 0 0 0 0
15-09-2020 29.5 (17:00) 21.5 (00:00) 25.5 6.39 (15:40) 3.89 (15:40) 0 0 0 0 0
05-09-2020 29.9 (16:40) 21.3 (00:00) 25.6 15 (18:10) 6.39 (18:10) 0 0 0 0 0
03-09-2020 29.6 (16:50) 21.3 (00:00) 25.4 17.78 (13:00) 8.61 (14:40) 0.1 0 0.1 0 0
22-08-2020 35.2 (15:30) 21 (00:00) 28.1 11.11 (19:30) 6.39 (20:10) 0 0 0 0 0
06-09-2020 30.2 (16:00) 20.9 (00:00) 25.6 14.17 (10:40) 5.83 (11:10) 0 0 0 0 0
07-09-2020 32 (15:40) 20.8 (07:30) 26.4 9.17 (00:20) 5 (17:30) 0 0 0 0 0
18-09-2020 25.4 (15:40) 20.8 (00:00) 23.1 13.89 (15:50) 7.78 (17:10) 0 0 0 0 0
09-09-2020 29.8 (16:00) 20.7 (00:00) 25.3 12.5 (02:00) 5.83 (13:00) 0 0 0 0 0
31-08-2020 29.4 (14:40) 20.6 (00:00) 25 15.28 (14:00) 6.94 (16:40) 0 0 0 0 0
21-08-2020 30 (18:50) 20.6 (00:00) 25.3 10.28 (22:10) 6.67 (21:50) 0 0 0 0 0
16-09-2020 31.2 (15:40) 20.5 (00:00) 25.9 7.22 (13:10) 3.61 (13:50) 0 0 0 0 0
10-09-2020 33.9 (16:10) 20.3 (00:00) 27.1 10.83 (00:20) 4.72 (00:20) 0 0 0 0 0
01-09-2020 30.6 (16:40) 20.2 (00:00) 25.4 10 (05:20) 4.17 (00:20) 0 0 0 0 0
28-08-2020 26.8 (16:40) 20.2 (00:00) 23.5 11.94 (13:20) 6.94 (14:10) 0 0 0 0 0
11-09-2020 30.2 (15:40) 20 (00:00) 25.1 12.5 (16:40) 5.28 (14:30) 0 0 0 0 0
23-08-2020 34.6 (17:30) 19.8 (00:00) 27.2 6.39 (15:20) 3.89 (15:20) 0 0 0 0 0
19-09-2020 24.7 (18:00) 19.5 (00:00) 22.1 10.28 (14:20) 7.22 (14:20) 0.5 0 0 0.5 0
30-08-2020 31.2 (16:00) 18.8 (00:00) 25 11.11 (14:50) 4.72 (15:40) 0 0 0 0 0
02-09-2020 31.3 (15:10) 18.7 (00:00) 25 11.94 (18:10) 4.72 (17:40) 0 0 0 0 0
29-08-2020 25.7 (16:00) 16.8 (00:00) 21.3 10.28 (15:30) 6.11 (20:00) 0 0 0 0 0

Gráficas

Temp. máximas Temp. mínimas Temp. medias Precipitaciones Rachas de viento máximas Velocidades máximas media en intervalos de 10 minutos

Datos horarios

Fecha y hora oficial Temperatura (ºC) Velocidad del viento (km/h) Dirección del viento Racha (km/h) Dirección de racha Precipitación (mm) Presión (hPa) Tendencia (hPa) Humedad (%)
2020-09-19 23:00:00 20.1 3 Oeste 15 Sudoeste 0 998.8 -- 82
2020-09-19 22:00:00 20.1 7 Oeste 21 Oeste 0 998.1 -- 82
2020-09-19 21:00:00 20.6 10 Oeste 20 Sudoeste 0 997.4 -- 78
2020-09-19 20:00:00 21.7 13 Oeste 23 Oeste 0 997.1 -- 71
2020-09-19 19:00:00 23.6 14 Oeste 29 Oeste 0 997 -- 65
2020-09-19 18:00:00 24.7 14 Sudoeste 28 Oeste 0 996.7 -- 59
2020-09-19 17:00:00 23.4 18 Sudoeste 33 Oeste 0 996.8 -- 70
2020-09-19 16:00:00 23.7 18 Sudoeste 37 Sudoeste 0 997 -- 70
2020-09-19 15:00:00 21.5 17 Sudoeste 37 Sudoeste 0.5 997.4 -- 84
2020-09-19 14:00:00 23.6 19 Sudoeste 34 Sudoeste 0 997.8 -- 69
2020-09-19 13:00:00 23.2 19 Sudoeste 33 Sudoeste 0 998.1 -- 72
2020-09-19 12:00:00 22.1 17 Sudoeste 35 Sudoeste 0 997.9 -- 76
2020-09-19 11:00:00 22.1 14 Sudoeste 27 Sudoeste 0 997.5 -- 80
2020-09-19 10:00:00 20.6 13 Sudoeste 22 Sudoeste 0 997.1 -- 87
2020-09-19 09:00:00 20 11 Sudoeste 23 Sur 0 996.7 -- 89
2020-09-19 08:00:00 20.3 11 Sur 21 Sudoeste 0 996.1 -- 86
2020-09-19 07:00:00 20.4 9 Sur 19 Sudoeste 0 995.8 -- 82
2020-09-19 06:00:00 20 9 Sudoeste 17 Sudoeste 0 995.8 -- 83
2020-09-19 05:00:00 19.6 9 Sudoeste 18 Sudoeste 0 995.7 -- 85
2020-09-19 04:00:00 20.2 10 Sudoeste 22 Sudoeste 0 995.6 -- 83
2020-09-19 03:00:00 20.2 12 Sudoeste 23 Sudoeste 0 995.9 -- 82
2020-09-19 02:00:00 20.3 12 Sudoeste 24 Sudoeste 0 996.2 -- 81
2020-09-19 01:00:00 20.9 13 Sudoeste 24 Sudoeste 0 996.2 -- 83
2020-09-19 00:00:00 21 15 Sudoeste 26 Sudoeste 0 996.3 -- 80
2020-09-18 23:00:00 21.1 16 Sudoeste 27 Sudoeste 0 996.2 -- 79
2020-09-18 22:00:00 21.4 15 Sudoeste 27 Sudoeste 0 995.3 -- 78
2020-09-18 21:00:00 21.5 17 Sudoeste 29 Sudoeste 0 994.5 -- 80
2020-09-18 20:00:00 21.7 18 Sudoeste 34 Sudoeste 0 994.1 -- 83
2020-09-18 19:00:00 22.7 22 Sudoeste 46 Sudoeste 0 993.6 -- 76
2020-09-18 18:00:00 23.2 22 Sudoeste 48 Sudoeste 0 993.4 -- 74
2020-09-18 17:00:00 25 25 Sudoeste 50 Sur 0 993.2 -- 65
2020-09-18 16:00:00 24.9 23 Sudoeste 50 Sur 0 993.1 -- 66
2020-09-18 15:00:00 24 22 Sudoeste 47 Sudoeste 0 993.1 -- 71
2020-09-18 14:00:00 25 24 Sudoeste 45 Sudoeste 0 993 -- 66
2020-09-18 13:00:00 24.5 17 Sur 38 Sur 0 992.5 -- 66
2020-09-18 12:00:00 24.8 15 Sur 35 Sur 0 992.3 -- 64
2020-09-18 11:00:00 24.4 17 Sur 45 Sur 0 991.7 -- 68
2020-09-18 10:00:00 23.5 15 Sudeste 33 Sudeste 0 991 -- 69
2020-09-18 09:00:00 21.4 8 Sudeste 23 Sudeste 0 990.5 -- 77
2020-09-18 08:00:00 21.1 9 Sudeste 20 Sudeste 0 990.4 -- 77
2020-09-18 07:00:00 21 7 Este 22 Este 0 990.6 -- 75
2020-09-18 06:00:00 21.1 7 Sudeste 19 Sudeste 0 990.6 -- 77
2020-09-18 05:00:00 21 12 Sudeste 22 Sur 0 991.2 -- 83
2020-09-18 04:00:00 21 12 Sur 30 Sur 0 991.7 -- 84
2020-09-18 03:00:00 21 14 Sur 39 Sudoeste 0 991.5 -- 83
2020-09-18 02:00:00 21.4 21 Sur 39 Sur 0 991.9 -- 83
2020-09-18 01:00:00 21.6 18 Sur 42 Sur 0 992 -- 78
2020-09-18 00:00:00 22.5 23 Sur 48 Sur 0 991.8 -- 70
2020-09-17 23:00:00 22.6 18 Sur 37 Sur 0 992.3 -- 70
2020-09-17 22:00:00 22.5 16 Sur 37 Sur 0 991.7 -- 70
2020-09-17 21:00:00 22.3 12 Sur 31 Sur 0 991.5 -- 76
2020-09-17 20:00:00 22.5 13 Sur 36 Sur 0 991.2 -- 73
2020-09-17 19:00:00 24.9 17 Sur 41 Sudeste 0 991.4 -- 63
2020-09-17 18:00:00 26.7 12 Sudeste 29 Sudeste 0 990.8 -- 61
2020-09-17 17:00:00 27.7 10 Sur 27 Sur 0 991.1 -- 52
2020-09-17 16:00:00 29.1 12 Sur 24 Sudeste 0 991.5 -- 43
2020-09-17 15:00:00 29 11 Sur 27 Sur 0 991.5 -- 43
2020-09-17 14:00:00 28.1 13 Sur 28 Sudeste 0 992.1 -- 45
2020-09-17 13:00:00 27.8 13 Sudeste 32 Sudeste 0 992.3 -- 48
2020-09-17 12:00:00 27.6 16 Sudeste 34 Sudeste 0 992.6 -- 50
2020-09-17 11:00:00 27.3 13 Sudeste 28 Sudeste 0 992.3 -- 54
2020-09-17 10:00:00 24.6 10 Sudeste 28 Sur 0 992.3 -- 62
2020-09-17 09:00:00 23.5 12 Sudeste 26 Sur 0 992.2 -- 67
2020-09-17 08:00:00 23 13 Sur 24 Sur 0 992 -- 68
2020-09-17 07:00:00 23.1 13 Sudeste 27 Sur 0 991.4 -- 69
2020-09-17 06:00:00 22.8 11 Sudeste 23 Sudeste 0 991.5 -- 73
2020-09-17 05:00:00 22.1 11 Sudeste 20 Sudeste 0 992 -- 79
2020-09-17 04:00:00 22.1 8 Sudeste 20 Sudeste 0 992.8 -- 80
2020-09-17 03:00:00 22.4 7 Sudeste 19 Sudeste 0 993.5 -- 79
2020-09-17 02:00:00 22.6 11 Sudeste 22 Sur 0 994.2 -- 78
2020-09-17 01:00:00 22.7 3 Este 13 Oeste 0 994.6 -- 75
2020-09-17 00:00:00 22.7 8 Oeste 22 Oeste 0 993.9 -- 76
2020-09-16 23:00:00 23.4 7 Oeste 14 Oeste 0 993.8 -- 71
2020-09-16 22:00:00 23.9 6 Este 20 Sudeste 0 993.5 -- 64
2020-09-16 21:00:00 24.2 9 Este 20 Sudeste 0 993 -- 62
2020-09-16 20:00:00 25.9 4 Nordeste 10 Sur 0 994 -- 63
2020-09-16 19:00:00 26.1 3 Sur 16 Sudeste 0 994 -- 62
2020-09-16 18:00:00 27.1 7 Sudeste 18 Sur 0 993.8 -- 60
2020-09-16 17:00:00 29.5 4 Sudeste 17 Sur 0 993.8 -- 51
2020-09-16 16:00:00 30.5 5 Sudeste 19 Sur 0 994 -- 45
2020-09-16 15:00:00 29.7 8 Sudeste 24 Sur 0 994.5 -- 47
2020-09-16 14:00:00 28 13 Sudeste 26 Sudeste 0 995.3 -- 54
2020-09-16 13:00:00 28.5 12 Sudeste 26 Sur 0 996 -- 54
2020-09-16 12:00:00 26.4 10 Sudeste 18 Sudeste 0 996.6 -- 64
2020-09-16 11:00:00 25.6 6 Este 15 Este 0 996.6 -- 68
2020-09-16 10:00:00 23 5 Sudeste 12 Sudeste 0 996.6 -- 80
2020-09-16 09:00:00 21.1 2 Este 9 Este 0 996.6 -- 87
2020-09-16 08:00:00 20.7 3 Nordeste 9 Nordeste 0 996.4 -- 87
2020-09-16 07:00:00 20.5 4 Nordeste 10 Este 0 996.4 -- 87
2020-09-16 06:00:00 20.6 5 Nordeste 12 Nordeste 0 996.7 -- 86
2020-09-16 05:00:00 21 4 Nordeste 11 Este 0 997.4 -- 85
2020-09-16 04:00:00 21.3 4 Nordeste 10 Nordeste 0 998 -- 83
2020-09-16 03:00:00 21.4 5 Nordeste 12 Este 0 998 -- 83
2020-09-16 02:00:00 21.8 2 Nordeste 7 Nordeste 0 998.2 -- 82
2020-09-16 01:00:00 22.4 5 Nordeste 12 Norte 0 998.1 -- 76
2020-09-16 00:00:00 22.9 6 Norte 15 Norte 0 998.4 -- 71
2020-09-15 23:00:00 23 6 Norte 12 Norte 0 998.5 -- 73
2020-09-15 22:00:00 23.4 3 Noroeste 10 Noroeste 0 998.2 -- 72
2020-09-15 21:00:00 23.9 4 Noroeste 20 Oeste 0 997.2 -- 71
2020-09-15 20:00:00 25.6 10 Oeste 21 Oeste 0 997.2 -- 65
2020-09-15 19:00:00 27.6 9 Oeste 22 Sudoeste 0 997.1 -- 60
2020-09-15 18:00:00 29.3 11 Oeste 21 Oeste 0 997.2 -- 55
2020-09-15 17:00:00 29.4 8 Oeste 19 Sudoeste 0 997.7 -- 54
2020-09-15 16:00:00 28.3 12 Sudoeste 23 Sudoeste 0 998.2 -- 59
2020-09-15 15:00:00 28.9 9 Sudoeste 22 Sudoeste 0 998.9 -- 57
2020-09-15 14:00:00 26.5 10 Sudoeste 19 Sudoeste 0 999.6 -- 62
2020-09-15 13:00:00 29 6 Este 22 Este 0 999.6 -- 52
2020-09-15 12:00:00 28.1 6 Sudeste 18 Este 0 1000.2 -- 55
2020-09-15 11:00:00 24.4 5 Este 12 Este 0 1000 -- 68
2020-09-15 10:00:00 22.8 3 Este 6 Este 0 999.7 -- 76
2020-09-15 09:00:00 21.9 0 Calma 6 Nordeste 0 999.1 -- 80
2020-09-15 08:00:00 21.5 2 Nordeste 6 Nordeste 0 998.8 -- 81
2020-09-15 07:00:00 21.8 3 Nordeste 10 Nordeste 0 998.4 -- 82
2020-09-15 06:00:00 22.4 4 Nordeste 12 Este 0 998.4 -- 82
2020-09-15 05:00:00 22.5 3 Este 10 Este 0 998.9 -- 82
2020-09-15 04:00:00 22.4 0 Calma 5 Nordeste 0 999 -- 82
2020-09-15 03:00:00 22.6 3 Nordeste 10 Nordeste 0 999.3 -- 82
2020-09-15 02:00:00 22.5 0 Calma 11 Este 0 999.3 -- 82
2020-09-15 01:00:00 22.5 4 Este 13 Este 0 999.4 -- 81
2020-09-15 00:00:00 22.7 8 Este 18 Este 0 999.1 -- 79
2020-09-14 23:00:00 22.7 9 Este 18 Este 0 998.9 -- 78
2020-09-14 22:00:00 23.5 9 Este 27 Este 0 998.3 -- 75
2020-09-14 21:00:00 24.7 9 Este 24 Este 0 997.9 -- 69
2020-09-14 20:00:00 26.6 9 Este 27 Sudeste 0 997.5 -- 61
2020-09-14 19:00:00 28.1 12 Este 34 Este 0 996.9 -- 56
2020-09-14 18:00:00 29.4 14 Este 35 Este 0 996.6 -- 52
2020-09-14 17:00:00 29.6 16 Este 38 Este 0 996.8 -- 53
2020-09-14 16:00:00 29.7 13 Este 38 Sudeste 0 997.7 -- 53
2020-09-14 15:00:00 30.2 17 Este 39 Sudeste 0 998.2 -- 51
2020-09-14 14:00:00 29.6 14 Este 36 Este 0 998.6 -- 54
2020-09-14 13:00:00 27.2 14 Este 42 Este 0 998.7 -- 60
2020-09-14 12:00:00 26.2 16 Este 36 Este 0 998.6 -- 64
2020-09-14 11:00:00 25.5 18 Este 37 Este 0 998.3 -- 66
2020-09-14 10:00:00 24.7 17 Este 34 Este 0 997.7 -- 67
2020-09-14 09:00:00 23.8 15 Este 35 Sudeste 0 997.4 -- 70
2020-09-14 08:00:00 23.4 15 Este 28 Este 0 997.1 -- 70
2020-09-14 07:00:00 23.3 14 Este 32 Este 0 996.7 -- 69
2020-09-14 06:00:00 23 16 Este 45 Sudeste 0 996.4 -- 70
2020-09-14 05:00:00 23.7 21 Este 46 Este 0 996.8 -- 68
2020-09-14 04:00:00 24 18 Este 48 Este 0 997.4 -- 65
2020-09-14 03:00:00 24.1 19 Este 41 Este 0 997.7 -- 64
2020-09-14 02:00:00 24 18 Sudeste 40 Sudeste 0 997.6 -- 62
2020-09-14 01:00:00 23.8 18 Este 44 Este 0 997.3 -- 65
2020-09-14 00:00:00 24.1 19 Este 53 Este 0 997.9 -- 63
2020-09-13 23:00:00 24.6 22 Este 56 Este 0 997.9 -- 56
2020-09-13 22:00:00 24.5 24 Este 49 Este 0 997.1 -- 55
2020-09-13 21:00:00 24.8 22 Este 54 Este 0 996.5 -- 55
2020-09-13 20:00:00 26 19 Este 40 Este 0 996.3 -- 53
2020-09-13 19:00:00 27.5 19 Este 54 Este 0 996.5 -- 49
2020-09-13 18:00:00 28.3 24 Este 53 Este 0 996.5 -- 45
2020-09-13 17:00:00 29.4 25 Este 53 Este 0 996.6 -- 45
2020-09-13 16:00:00 30 20 Este 54 Este 0 996.8 -- 45
2020-09-13 15:00:00 29 26 Este 59 Este 0 997.1 -- 47
2020-09-13 14:00:00 29.1 29 Este 62 Sudeste 0 997.5 -- 47
2020-09-13 13:00:00 28 24 Este 62 Este 0 997.6 -- 52
2020-09-13 12:00:00 28.1 25 Este 56 Este 0 997.6 -- 52
2020-09-13 11:00:00 26.7 25 Este 55 Sudeste 0 997 -- 55
2020-09-13 10:00:00 24.6 23 Este 50 Este 0 996.3 -- 61
2020-09-13 09:00:00 24 23 Este 47 Sudeste 0 995.5 -- 62
2020-09-13 08:00:00 23.9 19 Este 39 Este 0 994.9 -- 63
2020-09-13 07:00:00 23.7 19 Este 46 Este 0 995 -- 64
2020-09-13 06:00:00 23.6 20 Este 42 Sudeste 0 995 -- 65
2020-09-13 05:00:00 23.7 20 Este 45 Sudeste 0 994.7 -- 65
2020-09-13 04:00:00 24.1 18 Este 52 Este 0 994.8 -- 61
2020-09-13 03:00:00 24.3 14 Este 41 Este 0 994.9 -- 60
2020-09-13 02:00:00 24.3 14 Este 43 Este 0 995.3 -- 61
2020-09-13 01:00:00 24.5 19 Este 53 Sudeste 0 995.3 -- 59
2020-09-13 00:00:00 24.2 21 Este 45 Este 0 994.8 -- 60
2020-09-12 23:00:00 24.1 20 Este 42 Este 0 994.4 -- 61
2020-09-12 22:00:00 24.3 18 Este 41 Este 0 993.6 -- 60
2020-09-12 21:00:00 25 17 Este 42 Este 0 992.7 -- 55
2020-09-12 20:00:00 26.2 15 Este 44 Este 0 992.8 -- 48
2020-09-12 19:00:00 26.8 17 Este 42 Este 0 992.5 -- 43
2020-09-12 18:00:00 27.7 18 Este 50 Este 0 992.3 -- 45
2020-09-12 17:00:00 29.7 24 Este 57 Este 0 992.4 -- 38
2020-09-12 16:00:00 29.3 22 Este 56 Este 0 992.5 -- 39
2020-09-12 15:00:00 30.5 23 Este 66 Este 0 992.9 -- 38
2020-09-12 14:00:00 30.5 24 Este 55 Este 0 993 -- 36
2020-09-12 13:00:00 29.9 23 Este 50 Sudeste 0 993 -- 39
2020-09-12 12:00:00 29 20 Este 40 Este 0 993 -- 42
2020-09-12 11:00:00 27.1 14 Este 34 Este 0 992.8 -- 50
2020-09-12 10:00:00 24.4 10 Este 29 Este 0 992.2 -- 59
2020-09-12 09:00:00 23.1 12 Este 24 Este 0 991.8 -- 62
2020-09-12 08:00:00 22.2 12 Este 24 Este 0 991.1 -- 61
2020-09-12 07:00:00 22.5 12 Este 29 Este 0 991 -- 55
2020-09-12 06:00:00 22.8 14 Este 30 Este 0 990.9 -- 51
2020-09-12 05:00:00 23.2 17 Este 36 Este 0 991.1 -- 47
2020-09-12 04:00:00 23.2 15 Este 36 Este 0 991.1 -- 48
2020-09-12 03:00:00 23 12 Este 30 Este 0 991.4 -- 52
2020-09-12 02:00:00 23.1 10 Este 32 Este 0 991.4 -- 57
2020-09-12 01:00:00 22.9 11 Este 25 Este 0 991.4 -- 55
2020-09-12 00:00:00 23.5 10 Este 29 Este 0 991.6 -- 56
2020-09-11 23:00:00 23.7 14 Este 39 Este 0 991.4 -- 55
2020-09-11 22:00:00 24.2 17 Este 40 Este 0 990.9 -- 50
2020-09-11 21:00:00 24.6 16 Este 32 Este 0 990.3 -- 50
2020-09-11 20:00:00 26.1 13 Este 33 Este 0 990.3 -- 49
2020-09-11 19:00:00 27.3 13 Este 36 Este 0 990.3 -- 45
2020-09-11 18:00:00 29.6 16 Este 39 Este 0 990.8 -- 39
2020-09-11 17:00:00 29.6 17 Este 45 Este 0 991.2 -- 40
2020-09-11 16:00:00 29.8 15 Este 38 Este 0 991.5 -- 43
2020-09-11 15:00:00 29.2 17 Este 41 Este 0 992 -- 41
2020-09-11 14:00:00 29.1 16 Este 37 Este 0 992.3 -- 43
2020-09-11 13:00:00 28.8 14 Este 32 Sudeste 0 992.7 -- 47
2020-09-11 12:00:00 27.8 14 Este 32 Este 0 992.7 -- 47
2020-09-11 11:00:00 25.4 14 Este 33 Este 0 992.4 -- 55
2020-09-11 10:00:00 22.9 15 Este 41 Este 0 992.2 -- 66
2020-09-11 09:00:00 21.2 15 Este 33 Este 0 992 -- 70
2020-09-11 08:00:00 20.3 12 Este 32 Este 0 991.7 -- 74
2020-09-11 07:00:00 20.5 14 Este 32 Este 0 991.8 -- 70
2020-09-11 06:00:00 20.2 13 Este 27 Este 0 992 -- 77
2020-09-11 05:00:00 20.6 7 Este 24 Este 0 992.3 -- 75
2020-09-11 04:00:00 21.2 11 Este 26 Este 0 992.7 -- 68
2020-09-11 03:00:00 21.4 8 Este 17 Este 0 993.1 -- 64
2020-09-11 02:00:00 21.9 7 Este 21 Este 0 993.6 -- 55
2020-09-11 01:00:00 22.6 10 Este 20 Este 0 993.6 -- 54
2020-09-11 00:00:00 23.3 7 Este 18 Este 0 994 -- 46
2020-09-10 23:00:00 24.2 8 Este 15 Este 0 994.1 -- 44
2020-09-10 22:00:00 25.6 2 Nordeste 8 Este 0 993.9 -- 47
2020-09-10 21:00:00 26.2 5 Oeste 14 Oeste 0 993.2 -- 45
2020-09-10 20:00:00 27.9 8 Oeste 22 Oeste 0 993 -- 39
2020-09-10 19:00:00 28.9 13 Oeste 26 Oeste 0 993.2 -- 38
2020-09-10 18:00:00 31.8 11 Oeste 22 Oeste 0 993.5 -- 35
2020-09-10 17:00:00 32.3 11 Oeste 20 Oeste 0 993.8 -- 35
2020-09-10 16:00:00 33.5 9 Sudeste 22 Este 0 994.5 -- 29
2020-09-10 15:00:00 33 9 Sudeste 25 Sudeste 0 995.3 -- 32
2020-09-10 14:00:00 32.2 8 Este 23 Este 0 995.9 -- 33
2020-09-10 13:00:00 30.2 6 Nordeste 23 Sudeste 0 996.6 -- 35
2020-09-10 12:00:00 28.4 8 Nordeste 29 Este 0 997 -- 39
2020-09-10 11:00:00 26.5 13 Este 28 Este 0 997.2 -- 41
2020-09-10 10:00:00 23.3 12 Este 28 Este 0 996.9 -- 51
2020-09-10 09:00:00 21.2 11 Este 26 Este 0 996.7 -- 59
2020-09-10 08:00:00 20.5 10 Este 28 Este 0 996.4 -- 59
2020-09-10 07:00:00 20.5 13 Este 32 Este 0 996.1 -- 62
2020-09-10 06:00:00 20.4 12 Este 39 Este 0 996.2 -- 72
2020-09-10 05:00:00 20.4 14 Este 33 Este 0 996.6 -- 78
2020-09-10 04:00:00 20.5 13 Este 33 Este 0 996.8 -- 75
2020-09-10 03:00:00 20.8 15 Este 32 Este 0 997.4 -- 74
2020-09-10 02:00:00 21.1 14 Este 32 Este 0 997.6 -- 70
2020-09-10 01:00:00 21.5 13 Este 39 Este 0 998 -- 69
2020-09-10 00:00:00 21.6 14 Este 29 Este 0 998 -- 68
2020-09-09 23:00:00 22.1 10 Este 27 Este 0 997.7 -- 66
2020-09-09 22:00:00 22.7 12 Este 26 Este 0 997.2 -- 59
2020-09-09 21:00:00 23.6 12 Este 27 Este 0 996.2 -- 54
2020-09-09 20:00:00 26 10 Este 31 Este 0 996.1 -- 45
2020-09-09 19:00:00 27.7 12 Este 33 Este 0 995.8 -- 38
2020-09-09 18:00:00 29.4 14 Este 33 Este 0 996.1 -- 36
2020-09-09 17:00:00 29.5 14 Este 39 Este 0 996.5 -- 39
2020-09-09 16:00:00 29.8 14 Este 42 Este 0 996.8 -- 39
2020-09-09 15:00:00 28.8 15 Este 41 Este 0 997.1 -- 42
2020-09-09 14:00:00 29.3 18 Este 41 Este 0 997.6 -- 41
2020-09-09 13:00:00 28.3 21 Este 43 Este 0 997.9 -- 42
2020-09-09 12:00:00 26.9 16 Este 39 Este 0 998.2 -- 51
2020-09-09 11:00:00 25 17 Este 39 Este 0 998 -- 60
2020-09-09 10:00:00 23 16 Este 39 Este 0 997.7 -- 70
2020-09-09 09:00:00 21.4 14 Este 38 Este 0 997.2 -- 77
2020-09-09 08:00:00 20.8 15 Este 30 Este 0 996.7 -- 79
2020-09-09 07:00:00 20.8 15 Este 37 Este 0 996.4 -- 78
2020-09-09 06:00:00 20.9 17 Este 41 Este 0 996.4 -- 77
2020-09-09 05:00:00 21.2 14 Este 37 Este 0 996.5 -- 78
2020-09-09 04:00:00 21.2 15 Este 41 Sudeste 0 996.6 -- 78
2020-09-09 03:00:00 21.4 18 Este 42 Este 0 996.4 -- 77
2020-09-09 02:00:00 21.6 19 Este 45 Este 0 996.5 -- 76
2020-09-09 01:00:00 21.7 18 Este 42 Este 0 996.6 -- 74
2020-09-09 00:00:00 22 19 Este 46 Este 0 996.7 -- 72
2020-09-08 23:00:00 22.2 19 Este 44 Sudeste 0 996.8 -- 73
2020-09-08 22:00:00 22.5 19 Este 41 Este 0 996.4 -- 72
2020-09-08 21:00:00 23 15 Este 39 Este 0 995.9 -- 66
2020-09-08 20:00:00 23.9 20 Este 50 Este 0 995.6 -- 64
2020-09-08 19:00:00 25.2 23 Este 50 Este 0 995.5 -- 62
2020-09-08 18:00:00 26.8 18 Este 43 Este 0 995.6 -- 59
2020-09-08 17:00:00 27.7 19 Este 52 Este 0 995.6 -- 56
2020-09-08 16:00:00 28.2 22 Este 52 Sudeste 0 995.9 -- 53
2020-09-08 15:00:00 28.8 22 Este 56 Este 0 995.9 -- 54
2020-09-08 14:00:00 29.6 22 Este 49 Este 0 996.2 -- 50
2020-09-08 13:00:00 27.9 21 Este 54 Este 0 996 -- 55
2020-09-08 12:00:00 27.5 19 Este 47 Este 0 996.1 -- 58
2020-09-08 11:00:00 26.4 19 Este 48 Este 0 995.9 -- 62
2020-09-08 10:00:00 24.4 21 Este 46 Este 0 995.4 -- 70
2020-09-08 09:00:00 22.9 20 Este 44 Este 0 995 -- 75
2020-09-08 08:00:00 22.1 18 Este 41 Sudeste 0 994.8 -- 77
2020-09-08 07:00:00 22.1 19 Este 39 Este 0 994.6 -- 78
2020-09-08 06:00:00 22.2 18 Este 41 Este 0 994.8 -- 75
2020-09-08 05:00:00 22.3 21 Este 46 Este 0 994.8 -- 76
2020-09-08 04:00:00 22.3 15 Este 32 Sudeste 0 995.1 -- 75
2020-09-08 03:00:00 22.6 15 Este 33 Este 0 995.4 -- 77
2020-09-08 02:00:00 22.5 14 Este 26 Este 0 995.7 -- 80
2020-09-08 01:00:00 22.7 11 Este 20 Sudeste 0 995.7 -- 69
2020-09-08 00:00:00 22.7 6 Este 10 Norte 0 995.3 -- 63
2020-09-07 23:00:00 23.8 3 Norte 15 Oeste 0 994.6 -- 61
2020-09-07 22:00:00 24.3 13 Oeste 27 Oeste 0 993.9 -- 52
2020-09-07 21:00:00 25.7 15 Oeste 24 Oeste 0 993 -- 56
2020-09-07 20:00:00 28 13 Oeste 26 Oeste 0 992.8 -- 45
2020-09-07 19:00:00 29.1 14 Oeste 27 Oeste 0 992.9 -- 46
2020-09-07 18:00:00 28.8 17 Oeste 31 Oeste 0 992.8 -- 48
2020-09-07 17:00:00 30.1 15 Oeste 28 Oeste 0 993 -- 45
2020-09-07 16:00:00 31.8 13 Oeste 24 Oeste 0 993.5 -- 39
2020-09-07 15:00:00 30.8 13 Oeste 23 Oeste 0 994.1 -- 43
2020-09-07 14:00:00 31 12 Oeste 21 Oeste 0 994.4 -- 44
2020-09-07 13:00:00 31.3 6 Norte 12 Este 0 994.6 -- 30
2020-09-07 12:00:00 29.6 6 Este 18 Este 0 994.8 -- 40
2020-09-07 11:00:00 26.8 8 Este 19 Este 0 994.3 -- 53
2020-09-07 10:00:00 23.3 8 Este 17 Este 0 994 -- 66
2020-09-07 09:00:00 21.6 8 Este 18 Este 0 993.6 -- 76
2020-09-07 08:00:00 21 9 Este 21 Este 0 993.4 -- 77
2020-09-07 07:00:00 21 12 Este 21 Este 0 993 -- 77
2020-09-07 06:00:00 21.2 11 Este 25 Este 0 993.1 -- 77
2020-09-07 05:00:00 21.1 13 Este 23 Este 0 993.4 -- 79
2020-09-07 04:00:00 21 13 Este 22 Este 0 993.4 -- 80
2020-09-07 03:00:00 21.4 10 Este 27 Este 0 993.6 -- 77
2020-09-07 02:00:00 21.7 10 Este 29 Este 0 993.8 -- 77
2020-09-07 01:00:00 22.2 12 Este 33 Este 0 993.5 -- 75
2020-09-07 00:00:00 22.4 11 Este 25 Este 0 993.1 -- 71
2020-09-06 23:00:00 22.9 10 Este 27 Este 0 993.1 -- 64
2020-09-06 22:00:00 23.1 12 Este 31 Este 0 992.6 -- 59
2020-09-06 21:00:00 24.2 14 Este 33 Este 0 992 -- 56
2020-09-06 20:00:00 26 15 Este 36 Este 0 992.1 -- 50
2020-09-06 19:00:00 28.3 13 Este 33 Sudeste 0 992.1 -- 44
2020-09-06 18:00:00 29.7 16 Este 40 Este 0 992.2 -- 40
2020-09-06 17:00:00 29.5 18 Este 40 Este 0 992.2 -- 41
2020-09-06 16:00:00 30.2 17 Este 49 Este 0 993 -- 41
2020-09-06 15:00:00 29.5 18 Este 41 Sudeste 0 993.1 -- 42
2020-09-06 14:00:00 28.9 18 Este 43 Este 0 993.5 -- 43
2020-09-06 13:00:00 28.6 17 Este 41 Este 0 993.6 -- 48
2020-09-06 12:00:00 27.5 19 Este 46 Este 0 993.5 -- 51
2020-09-06 11:00:00 25.6 19 Este 51 Sudeste 0 993.1 -- 59
2020-09-06 10:00:00 23.3 17 Este 42 Este 0 992.8 -- 69
2020-09-06 09:00:00 21.6 15 Este 37 Este 0 992.6 -- 76
2020-09-06 08:00:00 20.9 14 Este 39 Este 0 992.3 -- 78
2020-09-06 07:00:00 20.9 15 Este 37 Este 0 992.2 -- 76
2020-09-06 06:00:00 21.1 14 Este 36 Este 0 992.2 -- 76
2020-09-06 05:00:00 21.5 14 Este 37 Este 0 992.3 -- 73
2020-09-06 04:00:00 21.6 18 Este 44 Este 0 992.6 -- 71
2020-09-06 03:00:00 21.8 13 Este 50 Este 0 992.9 -- 69
2020-09-06 02:00:00 21.8 17 Este 45 Este 0 993.3 -- 70
2020-09-06 01:00:00 21.9 17 Este 40 Este 0 993.5 -- 72
2020-09-06 00:00:00 22 16 Este 38 Este 0 993.7 -- 73
2020-09-05 23:00:00 22.4 17 Este 43 Este 0 993.4 -- 67
2020-09-05 22:00:00 22.7 21 Este 50 Este 0 993.2 -- 64
2020-09-05 21:00:00 23.7 21 Este 41 Este 0 992.6 -- 55
2020-09-05 20:00:00 25.3 18 Este 45 Este 0 992.5 -- 49
2020-09-05 19:00:00 27.1 18 Este 54 Este 0 992.6 -- 42
2020-09-05 18:00:00 28.6 20 Este 46 Sudeste 0 992.9 -- 39
2020-09-05 17:00:00 29.6 19 Este 45 Este 0 993.7 -- 41
2020-09-05 16:00:00 29.4 20 Este 43 Este 0 994.4 -- 42
2020-09-05 15:00:00 29.3 18 Este 43 Este 0 995.2 -- 46
2020-09-05 14:00:00 28.6 19 Este 46 Este 0 995.4 -- 49
2020-09-05 13:00:00 27.9 17 Este 45 Este 0 996 -- 52
2020-09-05 12:00:00 26.6 20 Este 47 Este 0 996.4 -- 58
2020-09-05 11:00:00 25.5 17 Este 40 Este 0 996.1 -- 63
2020-09-05 10:00:00 23.8 14 Este 31 Este 0 996.1 -- 71
2020-09-05 09:00:00 22.1 15 Este 34 Este 0 995.9 -- 77
2020-09-05 08:00:00 21.4 14 Este 34 Este 0 995.7 -- 79
2020-09-05 07:00:00 21.5 16 Este 39 Este 0 995.6 -- 79
2020-09-05 06:00:00 21.6 18 Este 39 Este 0 995.2 -- 78
2020-09-05 05:00:00 21.7 14 Este 41 Este 0 995.9 -- 78
2020-09-05 04:00:00 21.8 16 Este 42 Sudeste 0 996.1 -- 77
2020-09-05 03:00:00 22 16 Este 47 Este 0 996.9 -- 77
2020-09-05 02:00:00 22.2 18 Este 44 Este 0 997.1 -- 77
2020-09-05 01:00:00 22.1 19 Este 43 Este 0 997.2 -- 77
2020-09-05 00:00:00 22.3 21 Este 43 Este 0 997.3 -- 77
2020-09-04 23:00:00 22.3 17 Este 42 Este 0 997.3 -- 77
2020-09-04 22:00:00 22.6 17 Este 38 Este 0 996.9 -- 76
2020-09-04 21:00:00 23.2 16 Este 36 Este 0 996.5 -- 71
2020-09-04 20:00:00 24.9 19 Este 49 Este 0 996.5 -- 63
2020-09-04 19:00:00 26.8 21 Este 48 Este 0 996.5 -- 55
2020-09-04 18:00:00 28 21 Este 52 Este 0 996.4 -- 49
2020-09-04 17:00:00 28.6 21 Este 53 Este 0 996.7 -- 48
2020-09-04 16:00:00 29.5 18 Este 52 Este 0 996.9 -- 47
2020-09-04 15:00:00 29.1 26 Este 58 Este 0 997.6 -- 47
2020-09-04 14:00:00 28.8 21 Este 54 Este 0 997.8 -- 49
2020-09-04 13:00:00 28.5 21 Este 58 Este 0 998.2 -- 51
2020-09-04 12:00:00 27.1 20 Este 54 Este 0 998.5 -- 55
2020-09-04 11:00:00 25.8 26 Este 59 Sudeste 0 998.1 -- 59
2020-09-04 10:00:00 23 18 Este 48 Sudeste 0 997.5 -- 71
2020-09-04 09:00:00 22.7 17 Este 50 Este 0 997.2 -- 75
2020-09-04 08:00:00 22 18 Este 46 Este 0 996.6 -- 78
2020-09-04 07:00:00 22 18 Este 44 Este 0 996.3 -- 76
2020-09-04 06:00:00 22 20 Este 49 Este 0 996.1 -- 76
2020-09-04 05:00:00 22.1 21 Este 48 Este 0 996.3 -- 76
2020-09-04 04:00:00 22.3 22 Este 48 Este 0 996.5 -- 75
2020-09-04 03:00:00 22.2 22 Este 46 Este 0 996.6 -- 74
2020-09-04 02:00:00 22.2 22 Este 62 Este 0 997.2 -- 73
2020-09-04 01:00:00 22.3 21 Este 45 Este 0 997.3 -- 73
2020-09-04 00:00:00 22.3 21 Este 49 Este 0 997.3 -- 73
2020-09-03 23:00:00 22.3 17 Este 45 Este 0 997.3 -- 72
2020-09-03 22:00:00 22.5 18 Este 39 Este 0 996.8 -- 72
2020-09-03 21:00:00 23.2 16 Este 54 Este 0 995.9 -- 68
2020-09-03 20:00:00 25.1 22 Este 57 Este 0 995.8 -- 58
2020-09-03 19:00:00 27 21 Este 54 Este 0 995.8 -- 49
2020-09-03 18:00:00 28.3 21 Este 57 Este 0 995.6 -- 47
2020-09-03 17:00:00 28.8 23 Este 59 Este 0 995.8 -- 44
2020-09-03 16:00:00 29.3 22 Este 57 Este 0 995.8 -- 44
2020-09-03 15:00:00 29.1 28 Este 62 Este 0 996.3 -- 45
2020-09-03 14:00:00 28.3 24 Este 60 Este 0 996.4 -- 50
2020-09-03 13:00:00 27.5 25 Este 64 Este 0 996.3 -- 51
2020-09-03 12:00:00 27.1 19 Este 49 Este 0 996.5 -- 52
2020-09-03 11:00:00 26.2 14 Este 37 Este 0 996.4 -- 57
2020-09-03 10:00:00 24.1 14 Este 42 Este 0.1 996.1 -- 66
2020-09-03 09:00:00 22.3 17 Este 51 Este 0 995.5 -- 73
2020-09-03 08:00:00 21.6 22 Este 48 Este 0 994.7 -- 75
2020-09-03 07:00:00 21.6 18 Este 44 Este 0 994.2 -- 75
2020-09-03 06:00:00 21.4 16 Este 41 Este 0 994.2 -- 74
2020-09-03 05:00:00 21.5 16 Este 39 Este 0 994.4 -- 72
2020-09-03 04:00:00 21.6 18 Este 45 Este 0 994.2 -- 73
2020-09-03 03:00:00 21.6 14 Este 32 Este 0 994.6 -- 76
2020-09-03 02:00:00 21.7 12 Este 29 Este 0 994.7 -- 73
2020-09-03 01:00:00 21.7 10 Este 28 Este 0 995 -- 70
2020-09-03 00:00:00 21.9 12 Este 29 Este 0 994.8 -- 63
2020-09-02 23:00:00 23 15 Este 33 Sudeste 0 994.8 -- 51
2020-09-02 22:00:00 22.6 11 Este 27 Nordeste 0 994.3 -- 56
2020-09-02 21:00:00 23.7 12 Este 32 Este 0 993.7 -- 52
2020-09-02 20:00:00 25.4 13 Este 33 Este 0 993.4 -- 49
2020-09-02 19:00:00 27.6 11 Este 43 Este 0 992.9 -- 38
2020-09-02 18:00:00 28.3 17 Este 36 Este 0 992.7 -- 34
2020-09-02 17:00:00 30.2 15 Este 35 Este 0 992.2 -- 30
2020-09-02 16:00:00 30.9 14 Este 32 Este 0 992.5 -- 33
2020-09-02 15:00:00 31 9 Este 28 Este 0 993 -- 37
2020-09-02 14:00:00 29.7 9 Sudeste 24 Sudeste 0 993.2 -- 44
2020-09-02 13:00:00 27.9 5 Este 22 Este 0 993.4 -- 50
2020-09-02 12:00:00 26.4 8 Sudeste 29 Sudeste 0 993.2 -- 58
2020-09-02 11:00:00 23.9 11 Sudeste 25 Sur 0 992.9 -- 69
2020-09-02 10:00:00 21.2 10 Sudeste 24 Sudeste 0 992.3 -- 82
2020-09-02 09:00:00 19.5 10 Sudeste 19 Sur 0 991.9 -- 86
2020-09-02 08:00:00 18.9 4 Sur 8 Sur 0 991.6 -- 80
2020-09-02 07:00:00 19.9 6 Sudeste 12 Sudeste 0 991.2 -- 70
2020-09-02 06:00:00 20.4 7 Sur 14 Sur 0 991 -- 70
2020-09-02 05:00:00 19.6 5 Este 7 Sudeste 0 991.1 -- 76
2020-09-02 04:00:00 19.9 5 Este 6 Este 0 991.2 -- 75
2020-09-02 03:00:00 20.1 3 Este 6 Este 0 991.4 -- 77
2020-09-02 02:00:00 21.2 0 Calma 7 Oeste 0 991.6 -- 75
2020-09-02 01:00:00 21.6 3 Oeste 9 Oeste 0 991.8 -- 68
2020-09-02 00:00:00 21.4 6 Oeste 9 Oeste 0 991.9 -- 78
2020-09-01 23:00:00 21.5 3 Oeste 14 Oeste 0 991.8 -- 68
2020-09-01 22:00:00 22 9 Oeste 17 Oeste 0 991.4 -- 58
2020-09-01 21:00:00 23.1 7 Oeste 21 Oeste 0 991 -- 61
2020-09-01 20:00:00 24.8 13 Oeste 23 Sudoeste 0 990.7 -- 58
2020-09-01 19:00:00 25.3 14 Oeste 27 Noroeste 0 990.7 -- 59
2020-09-01 18:00:00 29 8 Sur 18 Sur 0 990.6 -- 47
2020-09-01 17:00:00 30 13 Sudeste 22 Sur 0 990.8 -- 42
2020-09-01 16:00:00 30.5 5 Sudeste 17 Este 0 991.3 -- 39
2020-09-01 15:00:00 29.3 8 Este 22 Este 0 991.8 -- 38
2020-09-01 14:00:00 28.4 9 Este 23 Sudeste 0 992.2 -- 45
2020-09-01 13:00:00 27.2 10 Este 23 Este 0 992.5 -- 45
2020-09-01 12:00:00 26.1 11 Este 30 Este 0 992.6 -- 50
2020-09-01 11:00:00 24.8 14 Este 30 Este 0 992.5 -- 57
2020-09-01 10:00:00 22.9 8 Este 18 Este 0 992.2 -- 67
2020-09-01 09:00:00 20.8 7 Este 24 Este 0 992.1 -- 75
2020-09-01 08:00:00 20.3 10 Este 23 Este 0 991.6 -- 79
2020-09-01 07:00:00 20.5 10 Este 30 Este 0 991.4 -- 77
2020-09-01 06:00:00 20.8 13 Este 36 Este 0 991.4 -- 74
2020-09-01 05:00:00 21.2 13 Este 33 Este 0 991.7 -- 63
2020-09-01 04:00:00 21 13 Este 35 Este 0 991.7 -- 58
2020-09-01 03:00:00 20.8 13 Este 24 Este 0 992.4 -- 68
2020-09-01 02:00:00 20.6 8 Este 17 Nordeste 0 993 -- 69
2020-09-01 01:00:00 21.5 5 Este 35 Este 0 993.5 -- 70
2020-09-01 00:00:00 22.1 14 Este 38 Este 0 993.3 -- 61
2020-08-31 23:00:00 22.4 18 Este 39 Este 0 993 -- 59
2020-08-31 22:00:00 22.5 13 Este 37 Este 0 992.7 -- 58
2020-08-31 21:00:00 23.5 15 Este 40 Este 0 992.1 -- 50
2020-08-31 20:00:00 25 15 Este 42 Este 0 991.5 -- 55
2020-08-31 19:00:00 26.6 20 Este 50 Este 0 991.9 -- 49
2020-08-31 18:00:00 27.2 21 Este 53 Este 0 992.1 -- 48
2020-08-31 17:00:00 28.3 25 Este 51 Este 0 992.2 -- 45
2020-08-31 16:00:00 29.2 20 Este 53 Este 0 992.8 -- 45
2020-08-31 15:00:00 28.9 24 Este 50 Este 0 993.2 -- 45
2020-08-31 14:00:00 28.3 20 Este 55 Este 0 993.9 -- 48
2020-08-31 13:00:00 27.9 18 Este 48 Este 0 994.4 -- 49
2020-08-31 12:00:00 26.8 17 Este 50 Sudeste 0 994.5 -- 52
2020-08-31 11:00:00 25.5 19 Este 48 Este 0 994 -- 58
2020-08-31 10:00:00 23.6 19 Este 50 Este 0 993.6 -- 66
2020-08-31 09:00:00 21.9 14 Este 38 Este 0 993.3 -- 76
2020-08-31 08:00:00 21.1 13 Este 34 Este 0 993 -- 79
2020-08-31 07:00:00 21.1 13 Este 32 Este 0 992.5 -- 79
2020-08-31 06:00:00 21 12 Este 35 Este 0 992.6 -- 77
2020-08-31 05:00:00 21 17 Este 35 Este 0 992.4 -- 77
2020-08-31 04:00:00 20.8 10 Este 29 Este 0 992.6 -- 78
2020-08-31 03:00:00 20.7 8 Este 25 Este 0 992.5 -- 79
2020-08-31 02:00:00 21.2 8 Este 23 Este 0 993 -- 77
2020-08-31 01:00:00 21.6 10 Este 24 Sudeste 0 993.2 -- 75
2020-08-31 00:00:00 22.2 8 Este 23 Este 0 992.6 -- 68
2020-08-30 23:00:00 22.8 8 Este 22 Este 0 992.3 -- 68
2020-08-30 22:00:00 23.3 8 Este 21 Este 0 991.6 -- 67
2020-08-30 21:00:00 24.5 9 Este 22 Este 0 990.7 -- 60
2020-08-30 20:00:00 26.7 9 Este 26 Este 0 990 -- 47
2020-08-30 19:00:00 29.1 10 Este 36 Este 0 989.5 -- 35
2020-08-30 18:00:00 29.8 14 Este 32 Este 0 989.4 -- 29
2020-08-30 17:00:00 30.8 11 Este 34 Este 0 989.5 -- 28
2020-08-30 16:00:00 31 13 Este 38 Este 0 989.7 -- 27
2020-08-30 15:00:00 30.7 15 Este 40 Este 0 989.5 -- 29
2020-08-30 14:00:00 30 15 Este 35 Este 0 989.6 -- 33
2020-08-30 13:00:00 28.4 13 Este 31 Nordeste 0 989.6 -- 32
2020-08-30 12:00:00 26.1 8 Nordeste 21 Nordeste 0 989.6 -- 32
2020-08-30 11:00:00 26.2 8 Nordeste 20 Nordeste 0 989.3 -- 30
2020-08-30 10:00:00 23.2 2 Nordeste 11 Nordeste 0 988.8 -- 33
2020-08-30 09:00:00 20.5 4 Nordeste 12 Norte 0 988.7 -- 41
2020-08-30 08:00:00 20.3 4 Nordeste 21 Norte 0 988.3 -- 40
2020-08-30 07:00:00 20.5 9 Norte 20 Norte 0 988 -- 42
2020-08-30 06:00:00 20.5 9 Norte 16 Norte 0 988.1 -- 44
2020-08-30 05:00:00 19.4 8 Noroeste 21 Oeste 0 988.4 -- 59
2020-08-30 04:00:00 20.3 3 Nordeste 11 Norte 0 988.5 -- 65
2020-08-30 03:00:00 19.5 2 Este 8 Nordeste 0 988.8 -- 81
2020-08-30 02:00:00 19.3 3 Este 9 Sudeste 0 989.2 -- 78
2020-08-30 01:00:00 19.6 4 Sudeste 10 Sudeste 0 989.3 -- 82
2020-08-30 00:00:00 19.4 5 Sudeste 13 Sur 0 989 -- 79
2020-08-29 23:00:00 19.8 2 Sur 21 Sudoeste 0 988.6 -- 73
2020-08-29 22:00:00 20.5 16 Oeste 28 Oeste 0 987.8 -- 72
2020-08-29 21:00:00 21 16 Sudoeste 33 Oeste 0 987 -- 68
2020-08-29 20:00:00 22 22 Oeste 35 Oeste 0 986.9 -- 55
2020-08-29 19:00:00 23.8 18 Oeste 34 Sudoeste 0 986.9 -- 46
2020-08-29 18:00:00 24.7 18 Oeste 36 Oeste 0 987 -- 43
2020-08-29 17:00:00 25.3 17 Oeste 37 Noroeste 0 987.3 -- 41
2020-08-29 16:00:00 25.7 17 Oeste 37 Oeste 0 987.5 -- 31
2020-08-29 15:00:00 24.9 18 Oeste 34 Oeste 0 988.1 -- 37
2020-08-29 14:00:00 24.6 15 Oeste 36 Sudoeste 0 988.3 -- 41
2020-08-29 13:00:00 23.9 17 Oeste 30 Oeste 0 988.6 -- 48
2020-08-29 12:00:00 22.5 8 Noroeste 18 Noroeste 0 988.8 -- 43
2020-08-29 11:00:00 20.8 7 Oeste 19 Oeste 0 988.4 -- 50
2020-08-29 10:00:00 18.5 8 Noroeste 19 Noroeste 0 988.1 -- 58
2020-08-29 09:00:00 17.3 8 Noroeste 21 Oeste 0 988.1 -- 67
2020-08-29 08:00:00 17.1 10 Oeste 19 Noroeste 0 987.5 -- 68
2020-08-29 07:00:00 17.6 10 Oeste 25 Oeste 0 987.4 -- 66
2020-08-29 06:00:00 18.2 15 Oeste 25 Oeste 0 986.9 -- 63
2020-08-29 05:00:00 19 14 Oeste 22 Oeste 0 987 -- 62
2020-08-29 04:00:00 20.4 12 Oeste 22 Noroeste 0 987.2 -- 55
2020-08-29 03:00:00 21.4 12 Oeste 22 Oeste 0 987.5 -- 60
2020-08-29 02:00:00 21.4 9 Oeste 15 Oeste 0 987.8 -- 72
2020-08-29 01:00:00 21.5 10 Oeste 22 Oeste 0 988.1 -- 74
2020-08-29 00:00:00 21.6 13 Oeste 20 Sudoeste 0 988.4 -- 78
2020-08-28 23:00:00 22 8 Sudoeste 22 Sudoeste 0 988.8 -- 81
2020-08-28 22:00:00 22.4 12 Sudoeste 26 Oeste 0 988.4 -- 80
2020-08-28 21:00:00 23.1 17 Oeste 32 Sudoeste 0 988.1 -- 76
2020-08-28 20:00:00 24.3 19 Oeste 37 Oeste 0 988.2 -- 72
2020-08-28 19:00:00 26 24 Oeste 38 Oeste 0 988.6 -- 63
2020-08-28 18:00:00 26.2 24 Oeste 40 Sudoeste 0 989.3 -- 54
2020-08-28 17:00:00 26.7 22 Oeste 38 Oeste 0 989.7 -- 55
2020-08-28 16:00:00 26.6 20 Oeste 37 Oeste 0 990.2 -- 56
2020-08-28 15:00:00 25.8 22 Oeste 41 Oeste 0 990.9 -- 58
2020-08-28 14:00:00 24.8 23 Oeste 43 Oeste 0 991.2 -- 61
2020-08-28 13:00:00 23.9 23 Oeste 39 Oeste 0 991.9 -- 65
2020-08-28 12:00:00 23.8 19 Oeste 33 Oeste 0 992.2 -- 67
2020-08-28 11:00:00 22.6 15 Oeste 27 Oeste 0 991.9 -- 73
2020-08-28 10:00:00 21.8 11 Oeste 25 Oeste 0 991.5 -- 80
2020-08-28 09:00:00 20.4 15 Oeste 23 Oeste 0 991.2 -- 86
2020-08-28 08:00:00 20.6 10 Oeste 24 Oeste 0 991.1 -- 87
2020-08-28 07:00:00 21.5 12 Oeste 19 Oeste 0 990.8 -- 85
2020-08-28 06:00:00 22 5 Oeste 11 Sudoeste 0 990.7 -- 80
2020-08-28 05:00:00 22.7 3 Oeste 8 Oeste 0 991.1 -- 76
2020-08-28 04:00:00 23.1 3 Oeste 7 Oeste 0 991.3 -- 73
2020-08-28 03:00:00 22.9 2 Oeste 9 Oeste 0 991.9 -- 76
2020-08-28 02:00:00 22.7 5 Sudoeste 17 Oeste 0 992.4 -- 79
2020-08-28 01:00:00 23.5 10 Oeste 17 Oeste 0 992.8 -- 74
2020-08-28 00:00:00 24.6 9 Oeste 21 Oeste 0 993 -- 67
2020-08-27 23:00:00 25.5 10 Oeste 25 Oeste 0 993.2 -- 60
2020-08-27 22:00:00 26.2 14 Oeste 26 Oeste 0 992.9 -- 56
2020-08-27 21:00:00 26 15 Oeste 28 Oeste 0 992.8 -- 57
2020-08-27 20:00:00 28.3 18 Oeste 26 Oeste 0 992.8 -- 51
2020-08-27 19:00:00 -- 16 Oeste 25 Oeste 0 -- -- --
2020-08-27 18:00:00 32.5 17 Oeste 30 Oeste 0 993.6 -- 33
2020-08-27 17:00:00 31.6 20 Oeste 31 Oeste 0 994.1 -- 42
2020-08-27 16:00:00 32 18 Oeste 30 Oeste 0 994.6 -- 43
2020-08-27 15:00:00 33.2 14 Oeste 25 Oeste 0 995.3 -- 40
2020-08-27 14:00:00 34.1 9 Oeste 18 Oeste 0 995.7 -- 40
2020-08-27 13:00:00 33.2 4 Oeste 12 Oeste 0 996 -- 44
2020-08-27 12:00:00 31.7 3 Noroeste 12 Noroeste 0 996 -- 43
2020-08-27 11:00:00 31.2 4 Este 9 Este 0 995.8 -- 38
2020-08-27 10:00:00 28 4 Este 8 Este 0 995.2 -- 45
2020-08-27 09:00:00 24.9 6 Nordeste 11 Nordeste 0 995.2 -- 61
2020-08-27 08:00:00 24 5 Nordeste 12 Nordeste 0 995 -- 64
2020-08-27 07:00:00 24.7 4 Nordeste 10 Este 0 995.2 -- 61
2020-08-27 06:00:00 24.4 5 Este 9 Este 0 995.1 -- 63
2020-08-27 05:00:00 24.5 6 Nordeste 10 Nordeste 0 995.5 -- 65
2020-08-27 04:00:00 24.4 6 Nordeste 13 Este 0 995.8 -- 68
2020-08-27 03:00:00 26.5 4 Nordeste 9 Norte 0 996.2 -- 57
2020-08-27 02:00:00 26.7 0 Calma 9 Norte 0 996.4 -- 51
2020-08-27 01:00:00 28 3 Noroeste 7 Noroeste 0 996.5 -- 49
2020-08-27 00:00:00 30.3 2 Norte 7 Nordeste 0 996.3 -- 37
2020-08-26 23:00:00 30.5 3 Nordeste 13 Norte 0 996.3 -- 39
2020-08-26 22:00:00 30.8 3 Norte 14 Norte 0 995.7 -- 37
2020-08-26 21:00:00 30.6 6 Noroeste 16 Oeste 0 995.3 -- 41
2020-08-26 20:00:00 31.6 9 Oeste 17 Oeste 0 995.1 -- 48
2020-08-26 19:00:00 32.8 8 Oeste 21 Oeste 0 995.3 -- 47
2020-08-26 18:00:00 34.4 11 Oeste 21 Oeste 0 995.3 -- 42
2020-08-26 17:00:00 34.2 10 Oeste 26 Oeste 0 995.7 -- 42
2020-08-26 16:00:00 35.1 11 Oeste 21 Oeste 0 995.8 -- 41
2020-08-26 15:00:00 35.8 3 Noroeste 16 Noroeste 0 996.2 -- 38
2020-08-26 14:00:00 34.9 5 Este 20 Este 0 996.5 -- 35
2020-08-26 13:00:00 33.7 6 Este 19 Este 0 996.8 -- 37
2020-08-26 12:00:00 30.7 11 Este 23 Este 0 996.9 -- 46
2020-08-26 11:00:00 28.5 8 Este 21 Este 0 996.3 -- 56
2020-08-26 10:00:00 25.5 9 Este 22 Este 0 995.7 -- 68
2020-08-26 09:00:00 23.3 11 Nordeste 20 Nordeste 0 995.1 -- 79
2020-08-26 08:00:00 22.6 7 Nordeste 13 Este 0 994.9 -- 81
2020-08-26 07:00:00 22.4 5 Este 18 Este 0 994.9 -- 82
2020-08-26 06:00:00 22.4 10 Este 17 Este 0 994.3 -- 80
2020-08-26 05:00:00 22.5 6 Este 13 Este 0 994.5 -- 81
2020-08-26 04:00:00 22.9 6 Este 11 Este 0 994.8 -- 78
2020-08-26 03:00:00 23.3 7 Este 14 Este 0 994.9 -- 75
2020-08-26 02:00:00 23.6 3 Este 5 Sudeste 0 995.4 -- 73
2020-08-26 01:00:00 24.3 3 Este 10 Nordeste 0 995.2 -- 68
2020-08-26 00:00:00 24.8 0 Calma 8 Nordeste 0 995.1 -- 66
2020-08-25 23:00:00 26.3 2 Nordeste 13 Nordeste 0 994.6 -- 57
2020-08-25 22:00:00 26.8 4 Este 22 Este 0 993.4 -- 54
2020-08-25 21:00:00 28.5 8 Este 26 Este 0 992.6 -- 46
2020-08-25 20:00:00 31.3 14 Este 29 Este 0 992.2 -- 36
2020-08-25 19:00:00 33 14 Este 28 Este 0 992.1 -- 34
2020-08-25 18:00:00 34.1 13 Este 30 Este 0 992.1 -- 33
2020-08-25 17:00:00 34.3 13 Este 30 Este 0 992.5 -- 33
2020-08-25 16:00:00 34.5 13 Este 28 Este 0 992.9 -- 36
2020-08-25 15:00:00 34 10 Este 28 Este 0 993.4 -- 37
2020-08-25 14:00:00 32.8 13 Este 32 Este 0 993.6 -- 44
2020-08-25 13:00:00 31.5 14 Este 31 Este 0 993.9 -- 47
2020-08-25 12:00:00 30.1 13 Este 33 Este 0 993.9 -- 53
2020-08-25 11:00:00 28.5 14 Este 31 Este 0 993.2 -- 60
2020-08-25 10:00:00 26.4 14 Este 30 Este 0 992.9 -- 68
2020-08-25 09:00:00 24.3 14 Este 34 Este 0 992.6 -- 78
2020-08-25 08:00:00 23.2 14 Este 32 Este 0 992 -- 84
2020-08-25 07:00:00 23.1 13 Este 30 Este 0 991.8 -- 84
2020-08-25 06:00:00 23 12 Este 30 Este 0 991.9 -- 82
2020-08-25 05:00:00 23 13 Este 32 Este 0 992.2 -- 82
2020-08-25 04:00:00 23.5 13 Este 39 Este 0 992.2 -- 81
2020-08-25 03:00:00 23.8 16 Este 36 Este 0 992.5 -- 80
2020-08-25 02:00:00 23.8 13 Este 36 Este 0 992.6 -- 81
2020-08-25 01:00:00 24.1 14 Este 42 Este 0 992.9 -- 81
2020-08-25 00:00:00 24.3 11 Este 31 Este 0 992.7 -- 78
2020-08-24 23:00:00 25.2 13 Este 30 Este 0 992.8 -- 72
2020-08-24 22:00:00 25.9 12 Este 28 Este 0 992.3 -- 66
2020-08-24 21:00:00 27 14 Este 33 Sudeste 0 991.6 -- 60
2020-08-24 20:00:00 29.3 12 Este 37 Este 0 991.5 -- 52
2020-08-24 19:00:00 30.8 15 Este 40 Este 0 991.6 -- 47
2020-08-24 18:00:00 32 17 Este 40 Sudeste 0 991.8 -- 45
2020-08-24 17:00:00 32.7 16 Este 36 Este 0 992.2 -- 41
2020-08-24 16:00:00 32.5 16 Este 37 Este 0 992.9 -- 43
2020-08-24 15:00:00 32.4 16 Este 36 Este 0 993.2 -- 43
2020-08-24 14:00:00 31.8 15 Este 36 Este 0 993.5 -- 45
2020-08-24 13:00:00 31.4 13 Este 35 Este 0 994.1 -- 47
2020-08-24 12:00:00 30.9 12 Este 30 Este 0 994.3 -- 49
2020-08-24 11:00:00 29.2 11 Este 28 Este 0 994.1 -- 56
2020-08-24 10:00:00 26.8 13 Este 30 Este 0 993.7 -- 63
2020-08-24 09:00:00 23.9 11 Este 25 Este 0 993.8 -- 75
2020-08-24 08:00:00 22.8 10 Este 23 Este 0 993.4 -- 82
2020-08-24 07:00:00 22.8 10 Este 21 Este 0 993.2 -- 81
2020-08-24 06:00:00 22.9 10 Este 28 Este 0 993.4 -- 80
2020-08-24 05:00:00 23 12 Este 24 Este 0 993.6 -- 76
2020-08-24 04:00:00 24.4 8 Este 17 Este 0 993.7 -- 65
2020-08-24 03:00:00 23.7 6 Este 17 Este 0 994.1 -- 63
2020-08-24 02:00:00 24.4 10 Este 20 Sudeste 0 994.3 -- 62
2020-08-24 01:00:00 24.8 7 Este 13 Este 0 994.8 -- 58
2020-08-24 00:00:00 25.4 5 Este 10 Este 0 994.9 -- 55
2020-08-23 23:00:00 25.6 0 Calma 4 Oeste 0 995.1 -- 45
2020-08-23 22:00:00 26 3 Sudoeste 14 Oeste 0 994.7 -- 45
2020-08-23 21:00:00 27.9 9 Oeste 18 Oeste 0 994.2 -- 44
2020-08-23 20:00:00 30.7 13 Oeste 23 Oeste 0 994.1 -- 37
2020-08-23 19:00:00 30.5 13 Oeste 23 Oeste 0 994.4 -- 40
2020-08-23 18:00:00 33.7 11 Oeste 19 Oeste 0 994.7 -- 35
2020-08-23 17:00:00 34.2 9 Oeste 19 Sudoeste 0 995.3 -- 33
2020-08-23 16:00:00 33.7 10 Oeste 23 Oeste 0 996 -- 32
2020-08-23 15:00:00 33.1 12 Oeste 21 Oeste 0 996.4 -- 38
2020-08-23 14:00:00 32.2 11 Oeste 18 Sudoeste 0 996.5 -- 40
2020-08-23 13:00:00 32 7 Oeste 14 Noroeste 0 996.8 -- 41
2020-08-23 12:00:00 31 6 Sudeste 14 Este 0 997 -- 38
2020-08-23 11:00:00 28 2 Este 7 Nordeste 0 996.8 -- 47
2020-08-23 10:00:00 24.5 2 Este 6 Este 0 996.7 -- 61
2020-08-23 09:00:00 21.1 0 Calma 5 Este 0 996.9 -- 79
2020-08-23 08:00:00 19.8 2 Este 8 Este 0 996.3 -- 79
2020-08-23 07:00:00 20.9 4 Nordeste 5 Norte 0 996.1 -- 79
2020-08-23 06:00:00 21.3 0 Calma 12 Sudoeste 0 996.4 -- 79
2020-08-23 05:00:00 21.4 8 Sudoeste 14 Sudoeste 0 996.8 -- 78
2020-08-23 04:00:00 21.8 7 Sudoeste 10 Sudoeste 0 997 -- 71
2020-08-23 03:00:00 22.7 4 Oeste 12 Sudeste 0 997.3 -- 51
2020-08-23 02:00:00 24.7 2 Sur 15 Noroeste 0 997.7 -- 49
2020-08-23 01:00:00 24.3 2 Noroeste 15 Oeste 0 997.6 -- 47
2020-08-23 00:00:00 25.1 6 Noroeste 22 Oeste 0 997.6 -- 45
2020-08-22 23:00:00 25 13 Oeste 28 Oeste 0 997.8 -- 45
2020-08-22 22:00:00 24.7 18 Oeste 33 Oeste 0 997.2 -- 52
2020-08-22 21:00:00 26.2 19 Oeste 35 Oeste 0 996.6 -- 49
2020-08-22 20:00:00 29.3 23 Oeste 40 Oeste 0 996.1 -- 43
2020-08-22 19:00:00 31.5 23 Oeste 35 Oeste 0 996.2 -- 41
2020-08-22 18:00:00 33.3 20 Oeste 36 Oeste 0 996.5 -- 37
2020-08-22 17:00:00 34.5 18 Oeste 35 Oeste 0 996.9 -- 34
2020-08-22 16:00:00 34.8 14 Oeste 34 Sudoeste 0 997.4 -- 37
2020-08-22 15:00:00 34.4 15 Sudoeste 27 Sudoeste 0 997.7 -- 38
2020-08-22 14:00:00 32.6 11 Sudoeste 21 Oeste 0 998.3 -- 45
2020-08-22 13:00:00 32.2 7 Oeste 22 Norte 0 998.7 -- 48
2020-08-22 12:00:00 30.2 5 Noroeste 15 Noroeste 0 998.9 -- 52
2020-08-22 11:00:00 26.6 4 Noroeste 13 Norte 0 998.7 -- 63
2020-08-22 10:00:00 23.7 5 Norte 13 Norte 0 998 -- 73
2020-08-22 09:00:00 21.9 0 Calma 6 Oeste 0 997.9 -- 85
2020-08-22 08:00:00 21.3 3 Noroeste 5 Oeste 0 997.2 -- 87
2020-08-22 07:00:00 21.1 3 Noroeste 9 Noroeste 0 997 -- 87
2020-08-22 06:00:00 21.2 4 Oeste 10 Oeste 0 997 -- 88
2020-08-22 05:00:00 21.3 3 Sudoeste 11 Oeste 0 997 -- 85
2020-08-22 04:00:00 21.8 8 Oeste 14 Oeste 0 996.8 -- 82
2020-08-22 03:00:00 22.1 0 Calma 10 Oeste 0 997.1 -- 80
2020-08-22 02:00:00 22.9 2 Noroeste 12 Noroeste 0 997.2 -- 77
2020-08-22 01:00:00 22.6 5 Noroeste 12 Norte 0 997 -- 79
2020-08-22 00:00:00 22.2 0 Calma 18 Oeste 0 997 -- 81
2020-08-21 23:00:00 22.7 10 Noroeste 37 Noroeste 0 996.3 -- 80
2020-08-21 22:00:00 22.3 22 Oeste 36 Noroeste 0 995 -- 79
2020-08-21 21:00:00 24.1 19 Oeste 36 Oeste 0 994.6 -- 71
2020-08-21 20:00:00 27.2 18 Oeste 28 Oeste 0 994.6 -- 58
2020-08-21 19:00:00 29.6 15 Oeste 26 Oeste 0 994.6 -- 52
2020-08-21 18:00:00 29.5 16 Oeste 33 Oeste 0 994.6 -- 54
2020-08-21 17:00:00 28.3 21 Oeste 34 Oeste 0 994.5 -- 57
2020-08-21 16:00:00 28.7 18 Oeste 33 Oeste 0 994.7 -- 58
2020-08-21 15:00:00 27.9 19 Oeste 32 Oeste 0 995.1 -- 60
2020-08-21 14:00:00 27.4 15 Oeste 27 Sudoeste 0 995.2 -- 61
2020-08-21 13:00:00 27.5 10 Oeste 19 Oeste 0 995.2 -- 60
2020-08-21 12:00:00 27.4 4 Noroeste 8 Norte 0 994.8 -- 60
2020-08-21 11:00:00 24.6 4 Noroeste 7 Noroeste 0 994.3 -- 71
2020-08-21 10:00:00 22 3 Sur 9 Sur 0 994.3 -- 81
2020-08-21 09:00:00 21.2 2 Oeste 10 Oeste 0 993.5 -- 86
2020-08-21 08:00:00 20.9 5 Sudoeste 13 Sudoeste 0 993 -- 88
2020-08-21 07:00:00 20.8 7 Sudoeste 12 Sudoeste 0 992.6 -- 89
2020-08-21 06:00:00 20.9 3 Sudoeste 10 Sudoeste 0 992.1 -- 88
2020-08-21 05:00:00 21 4 Sudoeste 18 Oeste 0 992 -- 88
2020-08-21 04:00:00 20.8 12 Oeste 19 Oeste 0 992.1 -- 90
2020-08-21 03:00:00 20.8 10 Oeste 18 Oeste 0 992.4 -- 88
2020-08-21 02:00:00 20.9 10 Oeste 18 Oeste 0 992.5 -- 86
2020-08-21 01:00:00 21.1 8 Oeste 17 Oeste 0 992.2 -- 84
2020-08-21 00:00:00 21.5 9 Oeste 21 Oeste 0 991.7 -- 78